This is the latest recevied weather packets stored in our database for station/object KD0OXW. If no packets are shown the sender has not sent any weather packets the latest 1 day(s).
| Time | Temp. | Humidity | Pressure | Rain* | Wind** | Luminosity | Snow |
|---|---|---|---|---|---|---|---|
| 1778284378 | 16.11° C | 29% | 1001.8 hPa | 0 mm | - | - | - |
| 1778284078 | 16.11° C | 28% | 1001.8 hPa | 0 mm | - | - | - |
| 1778283778 | 16.11° C | 29% | 1001.9 hPa | 0 mm | - | - | - |
| 1778283478 | 16.67° C | 28% | 1001.9 hPa | 0 mm | - | - | - |
| 1778283178 | 16.67° C | 28% | 1002 hPa | 0 mm | - | - | - |
| 1778282878 | 16.67° C | 28% | 1002.2 hPa | 0 mm | - | - | - |
| 1778282578 | 16.67° C | 27% | 1002.2 hPa | 0 mm | - | - | - |
| 1778281978 | 16.67° C | 28% | 1002.2 hPa | 0 mm | - | - | - |
| 1778281378 | 16.67° C | 28% | 1002.3 hPa | 0 mm | - | - | - |
| 1778281078 | 16.67° C | 27% | 1002.3 hPa | 0 mm | - | - | - |
| 1778280778 | 17.22° C | 26% | 1002.4 hPa | 0 mm | - | - | - |
| 1778280478 | 17.22° C | 26% | 1002.3 hPa | 0 mm | - | - | - |
| 1778279278 | 16.11° C | 29% | 1002.5 hPa | 0 mm | - | - | - |
| 1778277178 | 16.67° C | 27% | 1002.9 hPa | 0 mm | - | - | - |
| 1778276878 | 16.67° C | 28% | 1003 hPa | 0 mm | - | - | - |
| 1778260679 | 13.89° C | 36% | 1006.6 hPa | 0 mm | - | - | - |
| 1778260379 | 13.89° C | 32% | 1006.7 hPa | 0 mm | - | - | - |
| 1778260079 | 13.89° C | 31% | 1006.8 hPa | 0 mm | - | - | - |
| 1778259779 | 13.89° C | 34% | 1006.9 hPa | 0 mm | - | - | - |
| 1778259479 | 14.44° C | 30% | 1007 hPa | 0 mm | - | - | - |
| 1778259179 | 14.44° C | 33% | 1006.9 hPa | 0 mm | - | - | - |
| 1778258879 | 14.44° C | 32% | 1006.9 hPa | 0 mm | - | - | - |
| 1778258579 | 14.44° C | 32% | 1007 hPa | 0 mm | - | - | - |
| 1778258279 | 14.44° C | 34% | 1007 hPa | 0 mm | - | - | - |
| 1778257979 | 13.89° C | 33% | 1007.1 hPa | 0 mm | - | - | - |
* Rain latest hour (hover to see other rain measurements)
** Current wind speed in m/s (hover to see current wind gust speed)